sensor_id;sensor_type;location;lat;lon;timestamp;P1;durP1;ratioP1;P2;durP2;ratioP2
35675;SDS011;21790;42.668;23.298;2023-12-28T00:00:10;33.22;;;15.98;;
35675;SDS011;21790;42.668;23.298;2023-12-28T00:02:42;35.67;;;15.88;;
35675;SDS011;21790;42.668;23.298;2023-12-28T00:05:09;43.38;;;16.05;;
35675;SDS011;21790;42.668;23.298;2023-12-28T00:07:36;35.88;;;15.20;;
35675;SDS011;21790;42.668;23.298;2023-12-28T00:10:02;37.58;;;15.00;;
35675;SDS011;21790;42.668;23.298;2023-12-28T00:12:30;39.97;;;16.95;;
35675;SDS011;21790;42.668;23.298;2023-12-28T00:14:56;38.63;;;17.02;;
35675;SDS011;21790;42.668;23.298;2023-12-28T00:17:22;42.55;;;17.58;;
35675;SDS011;21790;42.668;23.298;2023-12-28T00:19:48;39.92;;;17.23;;
35675;SDS011;21790;42.668;23.298;2023-12-28T00:22:15;39.72;;;16.98;;
35675;SDS011;21790;42.668;23.298;2023-12-28T00:24:48;36.15;;;15.32;;
35675;SDS011;21790;42.668;23.298;2023-12-28T00:27:21;41.65;;;16.77;;
35675;SDS011;21790;42.668;23.298;2023-12-28T00:29:47;40.42;;;17.42;;
35675;SDS011;21790;42.668;23.298;2023-12-28T00:32:15;40.53;;;15.23;;
35675;SDS011;21790;42.668;23.298;2023-12-28T00:34:45;31.65;;;15.35;;
35675;SDS011;21790;42.668;23.298;2023-12-28T00:37:12;36.63;;;16.52;;
35675;SDS011;21790;42.668;23.298;2023-12-28T00:39:51;42.03;;;16.15;;
35675;SDS011;21790;42.668;23.298;2023-12-28T00:42:25;30.08;;;15.35;;
35675;SDS011;21790;42.668;23.298;2023-12-28T00:44:51;37.53;;;16.45;;
35675;SDS011;21790;42.668;23.298;2023-12-28T00:47:18;40.63;;;16.58;;
35675;SDS011;21790;42.668;23.298;2023-12-28T00:49:44;37.47;;;15.40;;
35675;SDS011;21790;42.668;23.298;2023-12-28T00:52:12;35.38;;;14.23;;
35675;SDS011;21790;42.668;23.298;2023-12-28T00:54:39;33.55;;;14.75;;
35675;SDS011;21790;42.668;23.298;2023-12-28T00:57:06;32.85;;;15.10;;
35675;SDS011;21790;42.668;23.298;2023-12-28T00:59:32;45.80;;;21.55;;
35675;SDS011;21790;42.668;23.298;2023-12-28T01:02:01;31.77;;;15.10;;
35675;SDS011;21790;42.668;23.298;2023-12-28T01:04:28;26.80;;;14.35;;
35675;SDS011;21790;42.668;23.298;2023-12-28T01:06:55;28.77;;;13.77;;
35675;SDS011;21790;42.668;23.298;2023-12-28T01:09:21;31.45;;;14.07;;
35675;SDS011;21790;42.668;23.298;2023-12-28T01:11:47;24.98;;;12.75;;
35675;SDS011;21790;42.668;23.298;2023-12-28T01:14:16;30.52;;;14.15;;
35675;SDS011;21790;42.668;23.298;2023-12-28T01:16:45;30.45;;;14.40;;
35675;SDS011;21790;42.668;23.298;2023-12-28T01:19:12;34.03;;;14.68;;
35675;SDS011;21790;42.668;23.298;2023-12-28T01:21:39;29.48;;;15.25;;
35675;SDS011;21790;42.668;23.298;2023-12-28T01:24:15;28.05;;;13.10;;
35675;SDS011;21790;42.668;23.298;2023-12-28T01:26:45;27.20;;;12.50;;
35675;SDS011;21790;42.668;23.298;2023-12-28T01:29:12;31.13;;;13.55;;
35675;SDS011;21790;42.668;23.298;2023-12-28T01:31:43;24.88;;;11.73;;
35675;SDS011;21790;42.668;23.298;2023-12-28T01:36:42;23.30;;;11.85;;
35675;SDS011;21790;42.668;23.298;2023-12-28T01:39:09;26.73;;;11.95;;
35675;SDS011;21790;42.668;23.298;2023-12-28T01:41:44;27.40;;;11.25;;
35675;SDS011;21790;42.668;23.298;2023-12-28T01:44:11;26.70;;;11.48;;
35675;SDS011;21790;42.668;23.298;2023-12-28T01:46:38;21.00;;;11.50;;
35675;SDS011;21790;42.668;23.298;2023-12-28T01:49:12;19.60;;;9.88;;
35675;SDS011;21790;42.668;23.298;2023-12-28T01:51:40;24.25;;;9.93;;
35675;SDS011;21790;42.668;23.298;2023-12-28T01:54:08;17.60;;;10.32;;
35675;SDS011;21790;42.668;23.298;2023-12-28T01:56:35;23.45;;;11.07;;
35675;SDS011;21790;42.668;23.298;2023-12-28T01:59:01;23.60;;;10.90;;
35675;SDS011;21790;42.668;23.298;2023-12-28T02:01:27;25.13;;;11.43;;
35675;SDS011;21790;42.668;23.298;2023-12-28T02:03:55;22.70;;;11.50;;
35675;SDS011;21790;42.668;23.298;2023-12-28T02:06:24;19.30;;;11.10;;
35675;SDS011;21790;42.668;23.298;2023-12-28T02:08:57;20.35;;;10.38;;
35675;SDS011;21790;42.668;23.298;2023-12-28T02:11:30;24.15;;;11.20;;
35675;SDS011;21790;42.668;23.298;2023-12-28T02:13:58;28.95;;;12.88;;
35675;SDS011;21790;42.668;23.298;2023-12-28T02:16:25;21.50;;;11.20;;
35675;SDS011;21790;42.668;23.298;2023-12-28T02:18:57;19.88;;;10.77;;
35675;SDS011;21790;42.668;23.298;2023-12-28T02:21:30;17.20;;;10.23;;
35675;SDS011;21790;42.668;23.298;2023-12-28T02:24:01;25.38;;;11.57;;
35675;SDS011;21790;42.668;23.298;2023-12-28T02:28:58;21.25;;;11.10;;
35675;SDS011;21790;42.668;23.298;2023-12-28T02:31:34;21.90;;;11.45;;
35675;SDS011;21790;42.668;23.298;2023-12-28T02:36:57;19.52;;;10.32;;
35675;SDS011;21790;42.668;23.298;2023-12-28T02:39:24;23.95;;;10.32;;
35675;SDS011;21790;42.668;23.298;2023-12-28T02:41:54;22.00;;;10.07;;
35675;SDS011;21790;42.668;23.298;2023-12-28T02:44:24;15.80;;;9.60;;
35675;SDS011;21790;42.668;23.298;2023-12-28T02:47:00;19.98;;;9.77;;
35675;SDS011;21790;42.668;23.298;2023-12-28T02:49:26;21.35;;;10.75;;
35675;SDS011;21790;42.668;23.298;2023-12-28T02:51:53;21.70;;;9.82;;
35675;SDS011;21790;42.668;23.298;2023-12-28T02:54:20;22.10;;;12.27;;
35675;SDS011;21790;42.668;23.298;2023-12-28T02:56:53;26.25;;;10.98;;
35675;SDS011;21790;42.668;23.298;2023-12-28T02:59:22;28.48;;;13.30;;
35675;SDS011;21790;42.668;23.298;2023-12-28T03:01:51;26.05;;;11.52;;
35675;SDS011;21790;42.668;23.298;2023-12-28T03:04:27;19.48;;;11.35;;
35675;SDS011;21790;42.668;23.298;2023-12-28T03:07:03;23.85;;;12.50;;
35675;SDS011;21790;42.668;23.298;2023-12-28T03:09:37;28.33;;;12.02;;
35675;SDS011;21790;42.668;23.298;2023-12-28T03:12:13;18.63;;;10.25;;
35675;SDS011;21790;42.668;23.298;2023-12-28T03:20:59;19.02;;;10.73;;
35675;SDS011;21790;42.668;23.298;2023-12-28T03:23:27;27.20;;;13.30;;
35675;SDS011;21790;42.668;23.298;2023-12-28T03:25:56;21.05;;;11.32;;
35675;SDS011;21790;42.668;23.298;2023-12-28T03:28:23;24.00;;;12.05;;
35675;SDS011;21790;42.668;23.298;2023-12-28T03:31:02;24.13;;;11.75;;
35675;SDS011;21790;42.668;23.298;2023-12-28T03:33:35;24.20;;;12.07;;
35675;SDS011;21790;42.668;23.298;2023-12-28T03:38:51;26.65;;;12.68;;
35675;SDS011;21790;42.668;23.298;2023-12-28T03:44:17;24.50;;;11.40;;
35675;SDS011;21790;42.668;23.298;2023-12-28T03:55:27;32.65;;;15.35;;
35675;SDS011;21790;42.668;23.298;2023-12-28T04:03:31;23.40;;;13.20;;
35675;SDS011;21790;42.668;23.298;2023-12-28T04:05:57;32.03;;;15.98;;
35675;SDS011;21790;42.668;23.298;2023-12-28T04:08:28;31.67;;;13.90;;
35675;SDS011;21790;42.668;23.298;2023-12-28T04:10:56;33.33;;;14.65;;
35675;SDS011;21790;42.668;23.298;2023-12-28T04:13:24;30.05;;;14.55;;
35675;SDS011;21790;42.668;23.298;2023-12-28T04:18:21;36.75;;;15.73;;
35675;SDS011;21790;42.668;23.298;2023-12-28T04:20:50;30.08;;;15.43;;
35675;SDS011;21790;42.668;23.298;2023-12-28T04:23:16;33.83;;;14.05;;
35675;SDS011;21790;42.668;23.298;2023-12-28T04:25:42;31.13;;;15.57;;
35675;SDS011;21790;42.668;23.298;2023-12-28T04:28:15;34.42;;;15.38;;
35675;SDS011;21790;42.668;23.298;2023-12-28T04:30:45;28.35;;;14.13;;
35675;SDS011;21790;42.668;23.298;2023-12-28T04:33:16;26.10;;;14.82;;
35675;SDS011;21790;42.668;23.298;2023-12-28T04:35:44;28.70;;;14.32;;
35675;SDS011;21790;42.668;23.298;2023-12-28T04:38:10;30.17;;;15.57;;
35675;SDS011;21790;42.668;23.298;2023-12-28T04:43:14;29.75;;;15.55;;
35675;SDS011;21790;42.668;23.298;2023-12-28T04:48:20;37.85;;;16.50;;
35675;SDS011;21790;42.668;23.298;2023-12-28T04:50:48;32.38;;;15.35;;
35675;SDS011;21790;42.668;23.298;2023-12-28T04:56:09;35.05;;;16.42;;
35675;SDS011;21790;42.668;23.298;2023-12-28T04:58:35;29.58;;;16.73;;
35675;SDS011;21790;42.668;23.298;2023-12-28T05:01:05;32.53;;;15.55;;
35675;SDS011;21790;42.668;23.298;2023-12-28T05:03:33;30.80;;;16.30;;
35675;SDS011;21790;42.668;23.298;2023-12-28T05:06:01;34.22;;;15.55;;
35675;SDS011;21790;42.668;23.298;2023-12-28T05:08:27;32.38;;;15.88;;
35675;SDS011;21790;42.668;23.298;2023-12-28T05:10:54;34.92;;;15.85;;
35675;SDS011;21790;42.668;23.298;2023-12-28T05:15:53;33.22;;;16.55;;
35675;SDS011;21790;42.668;23.298;2023-12-28T05:23:34;33.00;;;15.70;;
35675;SDS011;21790;42.668;23.298;2023-12-28T05:26:08;30.23;;;15.52;;
35675;SDS011;21790;42.668;23.298;2023-12-28T05:28:37;33.40;;;14.60;;
35675;SDS011;21790;42.668;23.298;2023-12-28T05:31:05;30.23;;;14.88;;
35675;SDS011;21790;42.668;23.298;2023-12-28T05:33:38;32.30;;;15.73;;
35675;SDS011;21790;42.668;23.298;2023-12-28T05:38:50;40.08;;;15.23;;
35675;SDS011;21790;42.668;23.298;2023-12-28T05:41:17;32.15;;;17.13;;
35675;SDS011;21790;42.668;23.298;2023-12-28T05:43:44;32.05;;;15.60;;
35675;SDS011;21790;42.668;23.298;2023-12-28T05:46:09;30.17;;;14.70;;
35675;SDS011;21790;42.668;23.298;2023-12-28T05:48:36;26.50;;;15.30;;
35675;SDS011;21790;42.668;23.298;2023-12-28T05:51:03;30.58;;;15.73;;
35675;SDS011;21790;42.668;23.298;2023-12-28T05:53:29;31.40;;;15.93;;
35675;SDS011;21790;42.668;23.298;2023-12-28T05:55:54;32.13;;;16.42;;
35675;SDS011;21790;42.668;23.298;2023-12-28T05:58:20;37.72;;;16.15;;
35675;SDS011;21790;42.668;23.298;2023-12-28T06:00:52;33.50;;;15.75;;
35675;SDS011;21790;42.668;23.298;2023-12-28T06:03:22;34.38;;;16.42;;
35675;SDS011;21790;42.668;23.298;2023-12-28T06:05:54;31.05;;;15.75;;
35675;SDS011;21790;42.668;23.298;2023-12-28T06:08:20;33.78;;;16.40;;
35675;SDS011;21790;42.668;23.298;2023-12-28T06:10:46;29.98;;;15.77;;
35675;SDS011;21790;42.668;23.298;2023-12-28T06:13:11;28.98;;;15.15;;
35675;SDS011;21790;42.668;23.298;2023-12-28T06:15:38;30.67;;;14.93;;
35675;SDS011;21790;42.668;23.298;2023-12-28T06:18:07;29.23;;;14.45;;
35675;SDS011;21790;42.668;23.298;2023-12-28T06:20:34;29.02;;;14.63;;
35675;SDS011;21790;42.668;23.298;2023-12-28T06:23:06;35.67;;;15.93;;
35675;SDS011;21790;42.668;23.298;2023-12-28T06:28:18;31.52;;;16.63;;
35675;SDS011;21790;42.668;23.298;2023-12-28T06:30:53;33.80;;;16.35;;
35675;SDS011;21790;42.668;23.298;2023-12-28T06:33:26;36.30;;;17.25;;
35675;SDS011;21790;42.668;23.298;2023-12-28T06:38:51;39.03;;;19.10;;
35675;SDS011;21790;42.668;23.298;2023-12-28T06:41:20;38.85;;;18.48;;
35675;SDS011;21790;42.668;23.298;2023-12-28T06:43:58;37.33;;;20.20;;
35675;SDS011;21790;42.668;23.298;2023-12-28T06:46:31;40.80;;;18.75;;
35675;SDS011;21790;42.668;23.298;2023-12-28T06:48:56;45.17;;;19.85;;
35675;SDS011;21790;42.668;23.298;2023-12-28T06:51:25;38.10;;;20.70;;
35675;SDS011;21790;42.668;23.298;2023-12-28T06:53:51;49.83;;;20.17;;
35675;SDS011;21790;42.668;23.298;2023-12-28T06:56:17;38.75;;;21.52;;
35675;SDS011;21790;42.668;23.298;2023-12-28T06:58:42;44.95;;;23.35;;
35675;SDS011;21790;42.668;23.298;2023-12-28T07:01:11;38.58;;;19.65;;
35675;SDS011;21790;42.668;23.298;2023-12-28T07:03:39;115.07;;;55.22;;
35675;SDS011;21790;42.668;23.298;2023-12-28T07:06:07;41.78;;;21.55;;
35675;SDS011;21790;42.668;23.298;2023-12-28T07:11:05;54.28;;;24.17;;
35675;SDS011;21790;42.668;23.298;2023-12-28T07:13:31;39.63;;;20.98;;
35675;SDS011;21790;42.668;23.298;2023-12-28T07:15:56;43.95;;;22.83;;
35675;SDS011;21790;42.668;23.298;2023-12-28T07:20:47;41.67;;;18.00;;
35675;SDS011;21790;42.668;23.298;2023-12-28T07:23:14;34.38;;;18.30;;
35675;SDS011;21790;42.668;23.298;2023-12-28T07:25:40;31.27;;;17.67;;
35675;SDS011;21790;42.668;23.298;2023-12-28T07:28:05;31.98;;;17.92;;
35675;SDS011;21790;42.668;23.298;2023-12-28T07:30:32;29.50;;;16.80;;
35675;SDS011;21790;42.668;23.298;2023-12-28T07:32:59;36.77;;;18.90;;
35675;SDS011;21790;42.668;23.298;2023-12-28T07:35:25;30.85;;;17.02;;
35675;SDS011;21790;42.668;23.298;2023-12-28T07:37:52;32.92;;;17.13;;
35675;SDS011;21790;42.668;23.298;2023-12-28T07:42:48;35.42;;;18.42;;
35675;SDS011;21790;42.668;23.298;2023-12-28T07:45:15;35.08;;;19.50;;
35675;SDS011;21790;42.668;23.298;2023-12-28T07:47:43;34.22;;;19.30;;
35675;SDS011;21790;42.668;23.298;2023-12-28T07:50:10;36.97;;;17.92;;
35675;SDS011;21790;42.668;23.298;2023-12-28T07:55:23;38.63;;;21.10;;
35675;SDS011;21790;42.668;23.298;2023-12-28T07:57:52;36.42;;;20.38;;
35675;SDS011;21790;42.668;23.298;2023-12-28T08:00:19;39.53;;;20.08;;
35675;SDS011;21790;42.668;23.298;2023-12-28T08:02:48;47.00;;;20.83;;
35675;SDS011;21790;42.668;23.298;2023-12-28T08:05:15;41.20;;;20.58;;
35675;SDS011;21790;42.668;23.298;2023-12-28T08:07:43;41.22;;;22.52;;
35675;SDS011;21790;42.668;23.298;2023-12-28T08:10:11;44.40;;;20.17;;
35675;SDS011;21790;42.668;23.298;2023-12-28T08:12:42;40.15;;;21.95;;
35675;SDS011;21790;42.668;23.298;2023-12-28T08:15:10;41.20;;;21.90;;
35675;SDS011;21790;42.668;23.298;2023-12-28T08:17:35;40.10;;;21.55;;
35675;SDS011;21790;42.668;23.298;2023-12-28T08:20:01;37.03;;;21.65;;
35675;SDS011;21790;42.668;23.298;2023-12-28T08:22:30;44.10;;;22.25;;
35675;SDS011;21790;42.668;23.298;2023-12-28T08:24:56;47.97;;;22.38;;
35675;SDS011;21790;42.668;23.298;2023-12-28T08:27:22;47.85;;;23.05;;
35675;SDS011;21790;42.668;23.298;2023-12-28T08:33:03;48.03;;;24.77;;
35675;SDS011;21790;42.668;23.298;2023-12-28T08:35:32;44.55;;;22.00;;
35675;SDS011;21790;42.668;23.298;2023-12-28T08:38:04;37.63;;;18.70;;
35675;SDS011;21790;42.668;23.298;2023-12-28T08:40:31;33.13;;;17.05;;
35675;SDS011;21790;42.668;23.298;2023-12-28T08:48:21;33.40;;;18.20;;
35675;SDS011;21790;42.668;23.298;2023-12-28T08:50:50;35.60;;;17.95;;
35675;SDS011;21790;42.668;23.298;2023-12-28T08:53:18;29.65;;;18.55;;
35675;SDS011;21790;42.668;23.298;2023-12-28T08:55:44;36.33;;;18.98;;
35675;SDS011;21790;42.668;23.298;2023-12-28T08:58:09;30.67;;;16.45;;
35675;SDS011;21790;42.668;23.298;2023-12-28T09:00:42;38.40;;;17.85;;
35675;SDS011;21790;42.668;23.298;2023-12-28T09:03:12;33.28;;;17.83;;
35675;SDS011;21790;42.668;23.298;2023-12-28T09:05:41;37.22;;;17.98;;
35675;SDS011;21790;42.668;23.298;2023-12-28T09:08:12;37.90;;;18.10;;
35675;SDS011;21790;42.668;23.298;2023-12-28T09:18:38;30.02;;;17.50;;
35675;SDS011;21790;42.668;23.298;2023-12-28T09:21:09;29.52;;;16.85;;
35675;SDS011;21790;42.668;23.298;2023-12-28T09:23:38;32.40;;;18.30;;
35675;SDS011;21790;42.668;23.298;2023-12-28T09:36:10;23.25;;;12.32;;
35675;SDS011;21790;42.668;23.298;2023-12-28T09:38:38;28.40;;;17.38;;
35675;SDS011;21790;42.668;23.298;2023-12-28T09:43:45;35.00;;;17.35;;
35675;SDS011;21790;42.668;23.298;2023-12-28T09:46:33;29.50;;;17.05;;
35675;SDS011;21790;42.668;23.298;2023-12-28T09:49:02;29.55;;;17.73;;
35675;SDS011;21790;42.668;23.298;2023-12-28T09:51:43;32.03;;;17.60;;
35675;SDS011;21790;42.668;23.298;2023-12-28T09:54:12;32.15;;;18.15;;
35675;SDS011;21790;42.668;23.298;2023-12-28T09:59:24;31.38;;;17.63;;
35675;SDS011;21790;42.668;23.298;2023-12-28T10:04:55;34.03;;;18.10;;
35675;SDS011;21790;42.668;23.298;2023-12-28T10:07:31;39.83;;;20.02;;
35675;SDS011;21790;42.668;23.298;2023-12-28T10:10:05;30.02;;;17.42;;
35675;SDS011;21790;42.668;23.298;2023-12-28T10:12:47;37.05;;;22.10;;
35675;SDS011;21790;42.668;23.298;2023-12-28T10:15:17;47.33;;;27.42;;
35675;SDS011;21790;42.668;23.298;2023-12-28T10:23:22;56.13;;;29.42;;
35675;SDS011;21790;42.668;23.298;2023-12-28T10:28:25;49.78;;;29.35;;
35675;SDS011;21790;42.668;23.298;2023-12-28T10:33:39;57.95;;;29.92;;
35675;SDS011;21790;42.668;23.298;2023-12-28T10:44:55;59.15;;;33.15;;
35675;SDS011;21790;42.668;23.298;2023-12-28T10:47:42;61.53;;;35.00;;
35675;SDS011;21790;42.668;23.298;2023-12-28T10:50:16;56.10;;;32.72;;
35675;SDS011;21790;42.668;23.298;2023-12-28T10:56:25;61.03;;;34.35;;
35675;SDS011;21790;42.668;23.298;2023-12-28T11:01:40;53.03;;;31.95;;
35675;SDS011;21790;42.668;23.298;2023-12-28T11:07:34;52.17;;;32.28;;
35675;SDS011;21790;42.668;23.298;2023-12-28T11:14:58;49.40;;;29.23;;
35675;SDS011;21790;42.668;23.298;2023-12-28T11:17:25;45.85;;;27.33;;
35675;SDS011;21790;42.668;23.298;2023-12-28T11:19:52;47.50;;;29.50;;
35675;SDS011;21790;42.668;23.298;2023-12-28T11:22:19;47.38;;;28.15;;
35675;SDS011;21790;42.668;23.298;2023-12-28T11:24:46;57.65;;;31.23;;
35675;SDS011;21790;42.668;23.298;2023-12-28T11:27:11;61.78;;;30.98;;
35675;SDS011;21790;42.668;23.298;2023-12-28T11:29:40;45.40;;;29.73;;
35675;SDS011;21790;42.668;23.298;2023-12-28T11:32:07;44.65;;;26.92;;
35675;SDS011;21790;42.668;23.298;2023-12-28T12:12:04;46.67;;;28.25;;
35675;SDS011;21790;42.668;23.298;2023-12-28T12:14:32;52.17;;;29.75;;
35675;SDS011;21790;42.668;23.298;2023-12-28T12:17:03;45.10;;;27.42;;
35675;SDS011;21790;42.668;23.298;2023-12-28T12:19:29;57.08;;;30.38;;
35675;SDS011;21790;42.668;23.298;2023-12-28T12:21:55;47.70;;;27.70;;
35675;SDS011;21790;42.668;23.298;2023-12-28T12:24:23;50.70;;;26.60;;
35675;SDS011;21790;42.668;23.298;2023-12-28T12:26:50;47.10;;;26.05;;
35675;SDS011;21790;42.668;23.298;2023-12-28T12:29:17;47.55;;;25.90;;
35675;SDS011;21790;42.668;23.298;2023-12-28T12:31:43;40.85;;;26.10;;
35675;SDS011;21790;42.668;23.298;2023-12-28T12:34:11;44.58;;;25.75;;
35675;SDS011;21790;42.668;23.298;2023-12-28T12:36:40;38.60;;;23.05;;
35675;SDS011;21790;42.668;23.298;2023-12-28T12:39:06;37.00;;;21.80;;
35675;SDS011;21790;42.668;23.298;2023-12-28T12:41:33;39.95;;;23.77;;
35675;SDS011;21790;42.668;23.298;2023-12-28T12:44:05;37.40;;;22.45;;
35675;SDS011;21790;42.668;23.298;2023-12-28T12:46:39;41.28;;;21.25;;
35675;SDS011;21790;42.668;23.298;2023-12-28T12:51:38;44.55;;;22.63;;
35675;SDS011;21790;42.668;23.298;2023-12-28T12:54:09;43.90;;;23.05;;
35675;SDS011;21790;42.668;23.298;2023-12-28T12:56:37;47.65;;;26.20;;
35675;SDS011;21790;42.668;23.298;2023-12-28T12:59:12;45.55;;;25.73;;
35675;SDS011;21790;42.668;23.298;2023-12-28T13:01:44;41.08;;;24.92;;
35675;SDS011;21790;42.668;23.298;2023-12-28T13:04:14;49.63;;;25.42;;
35675;SDS011;21790;42.668;23.298;2023-12-28T13:06:42;44.20;;;24.95;;
35675;SDS011;21790;42.668;23.298;2023-12-28T13:16:50;41.63;;;22.98;;
35675;SDS011;21790;42.668;23.298;2023-12-28T13:19:21;41.78;;;23.33;;
35675;SDS011;21790;42.668;23.298;2023-12-28T13:24:22;50.03;;;25.13;;
35675;SDS011;21790;42.668;23.298;2023-12-28T13:26:50;46.55;;;23.55;;
35675;SDS011;21790;42.668;23.298;2023-12-28T13:31:44;50.05;;;24.50;;
35675;SDS011;21790;42.668;23.298;2023-12-28T13:34:17;50.38;;;23.35;;
35675;SDS011;21790;42.668;23.298;2023-12-28T13:36:46;41.10;;;23.57;;
35675;SDS011;21790;42.668;23.298;2023-12-28T13:39:14;41.45;;;22.15;;
35675;SDS011;21790;42.668;23.298;2023-12-28T13:41:41;44.40;;;24.80;;
35675;SDS011;21790;42.668;23.298;2023-12-28T13:51:41;41.42;;;23.23;;
35675;SDS011;21790;42.668;23.298;2023-12-28T13:59:12;41.87;;;24.13;;
35675;SDS011;21790;42.668;23.298;2023-12-28T14:09:01;49.00;;;28.73;;
35675;SDS011;21790;42.668;23.298;2023-12-28T14:11:28;53.65;;;24.30;;
35675;SDS011;21790;42.668;23.298;2023-12-28T14:13:55;54.95;;;23.60;;
35675;SDS011;21790;42.668;23.298;2023-12-28T14:16:22;53.10;;;23.75;;
35675;SDS011;21790;42.668;23.298;2023-12-28T14:18:49;53.42;;;23.08;;
35675;SDS011;21790;42.668;23.298;2023-12-28T14:21:18;55.58;;;23.77;;
35675;SDS011;21790;42.668;23.298;2023-12-28T14:23:46;51.63;;;22.30;;
35675;SDS011;21790;42.668;23.298;2023-12-28T14:26:14;53.55;;;25.30;;
35675;SDS011;21790;42.668;23.298;2023-12-28T14:28:43;53.42;;;23.90;;
35675;SDS011;21790;42.668;23.298;2023-12-28T14:31:10;49.03;;;22.13;;
35675;SDS011;21790;42.668;23.298;2023-12-28T14:36:25;48.80;;;20.55;;
35675;SDS011;21790;42.668;23.298;2023-12-28T14:38:58;51.00;;;20.77;;
35675;SDS011;21790;42.668;23.298;2023-12-28T14:41:27;42.33;;;21.27;;
35675;SDS011;21790;42.668;23.298;2023-12-28T14:50:25;41.33;;;19.33;;
35675;SDS011;21790;42.668;23.298;2023-12-28T15:02:52;47.08;;;20.42;;
35675;SDS011;21790;42.668;23.298;2023-12-28T15:05:18;44.88;;;20.20;;
35675;SDS011;21790;42.668;23.298;2023-12-28T15:07:43;48.25;;;20.45;;
35675;SDS011;21790;42.668;23.298;2023-12-28T15:15:34;54.78;;;21.55;;
35675;SDS011;21790;42.668;23.298;2023-12-28T15:18:00;49.58;;;21.42;;
35675;SDS011;21790;42.668;23.298;2023-12-28T15:20:26;55.80;;;23.58;;
35675;SDS011;21790;42.668;23.298;2023-12-28T15:22:52;55.30;;;23.70;;
35675;SDS011;21790;42.668;23.298;2023-12-28T15:25:18;61.88;;;25.17;;
35675;SDS011;21790;42.668;23.298;2023-12-28T15:27:46;45.25;;;22.70;;
35675;SDS011;21790;42.668;23.298;2023-12-28T15:30:13;58.47;;;22.42;;
35675;SDS011;21790;42.668;23.298;2023-12-28T15:32:42;57.08;;;22.27;;
35675;SDS011;21790;42.668;23.298;2023-12-28T15:35:12;55.83;;;22.88;;
35675;SDS011;21790;42.668;23.298;2023-12-28T15:37:43;61.50;;;22.98;;
35675;SDS011;21790;42.668;23.298;2023-12-28T15:40:16;61.90;;;22.70;;
35675;SDS011;21790;42.668;23.298;2023-12-28T15:42:43;61.38;;;21.50;;
35675;SDS011;21790;42.668;23.298;2023-12-28T15:45:10;60.95;;;21.52;;
35675;SDS011;21790;42.668;23.298;2023-12-28T15:47:36;51.45;;;19.20;;
35675;SDS011;21790;42.668;23.298;2023-12-28T15:50:03;59.00;;;23.10;;
35675;SDS011;21790;42.668;23.298;2023-12-28T15:52:30;67.07;;;21.27;;
35675;SDS011;21790;42.668;23.298;2023-12-28T15:54:56;63.33;;;23.05;;
35675;SDS011;21790;42.668;23.298;2023-12-28T15:57:22;58.35;;;22.20;;
35675;SDS011;21790;42.668;23.298;2023-12-28T15:59:49;60.90;;;21.80;;
35675;SDS011;21790;42.668;23.298;2023-12-28T16:02:25;66.53;;;25.88;;
35675;SDS011;21790;42.668;23.298;2023-12-28T16:04:58;72.72;;;25.25;;
35675;SDS011;21790;42.668;23.298;2023-12-28T16:07:24;80.97;;;26.90;;
35675;SDS011;21790;42.668;23.298;2023-12-28T16:09:50;59.85;;;25.30;;
35675;SDS011;21790;42.668;23.298;2023-12-28T16:12:17;70.65;;;24.05;;
35675;SDS011;21790;42.668;23.298;2023-12-28T16:18:06;56.63;;;22.95;;
35675;SDS011;21790;42.668;23.298;2023-12-28T16:24:09;51.25;;;21.98;;
35675;SDS011;21790;42.668;23.298;2023-12-28T16:36:23;61.70;;;27.65;;
35675;SDS011;21790;42.668;23.298;2023-12-28T16:38:49;75.32;;;30.13;;
35675;SDS011;21790;42.668;23.298;2023-12-28T16:41:15;82.00;;;29.92;;
35675;SDS011;21790;42.668;23.298;2023-12-28T16:43:40;67.38;;;27.10;;
35675;SDS011;21790;42.668;23.298;2023-12-28T16:46:07;60.50;;;25.30;;
35675;SDS011;21790;42.668;23.298;2023-12-28T16:48:33;62.47;;;24.23;;
35675;SDS011;21790;42.668;23.298;2023-12-28T16:51:01;65.28;;;24.60;;
35675;SDS011;21790;42.668;23.298;2023-12-28T16:53:28;58.05;;;26.13;;
35675;SDS011;21790;42.668;23.298;2023-12-28T16:58:42;69.65;;;26.02;;
35675;SDS011;21790;42.668;23.298;2023-12-28T17:01:09;60.53;;;23.45;;
35675;SDS011;21790;42.668;23.298;2023-12-28T17:03:38;77.88;;;24.83;;
35675;SDS011;21790;42.668;23.298;2023-12-28T17:06:06;71.85;;;26.60;;
35675;SDS011;21790;42.668;23.298;2023-12-28T17:11:07;69.40;;;26.52;;
35675;SDS011;21790;42.668;23.298;2023-12-28T17:23:43;53.15;;;23.48;;
35675;SDS011;21790;42.668;23.298;2023-12-28T17:29:54;74.40;;;26.10;;
35675;SDS011;21790;42.668;23.298;2023-12-28T17:37:38;61.58;;;27.50;;
35675;SDS011;21790;42.668;23.298;2023-12-28T17:40:06;72.68;;;29.02;;
35675;SDS011;21790;42.668;23.298;2023-12-28T17:42:37;74.72;;;32.72;;
35675;SDS011;21790;42.668;23.298;2023-12-28T17:45:05;78.80;;;33.40;;
35675;SDS011;21790;42.668;23.298;2023-12-28T17:47:36;78.22;;;36.00;;
35675;SDS011;21790;42.668;23.298;2023-12-28T17:50:14;90.88;;;40.67;;
35675;SDS011;21790;42.668;23.298;2023-12-28T17:52:43;85.47;;;37.63;;
35675;SDS011;21790;42.668;23.298;2023-12-28T18:00:23;70.93;;;32.25;;
35675;SDS011;21790;42.668;23.298;2023-12-28T18:14:47;79.22;;;31.05;;
35675;SDS011;21790;42.668;23.298;2023-12-28T18:17:17;70.60;;;32.38;;
35675;SDS011;21790;42.668;23.298;2023-12-28T18:19:42;77.72;;;30.75;;
35675;SDS011;21790;42.668;23.298;2023-12-28T18:22:11;66.13;;;31.25;;
35675;SDS011;21790;42.668;23.298;2023-12-28T18:24:36;64.97;;;31.48;;
35675;SDS011;21790;42.668;23.298;2023-12-28T18:27:02;75.97;;;33.33;;
35675;SDS011;21790;42.668;23.298;2023-12-28T18:29:30;67.80;;;31.27;;
35675;SDS011;21790;42.668;23.298;2023-12-28T18:31:56;68.43;;;31.80;;
35675;SDS011;21790;42.668;23.298;2023-12-28T18:37:08;72.63;;;32.30;;
35675;SDS011;21790;42.668;23.298;2023-12-28T18:39:47;72.20;;;32.17;;
35675;SDS011;21790;42.668;23.298;2023-12-28T18:42:19;80.10;;;33.38;;
35675;SDS011;21790;42.668;23.298;2023-12-28T18:44:56;71.90;;;33.17;;
35675;SDS011;21790;42.668;23.298;2023-12-28T18:47:25;83.07;;;36.13;;
35675;SDS011;21790;42.668;23.298;2023-12-28T18:49:54;81.88;;;34.05;;
35675;SDS011;21790;42.668;23.298;2023-12-28T19:00:18;87.53;;;32.55;;
35675;SDS011;21790;42.668;23.298;2023-12-28T19:02:44;94.05;;;34.92;;
35675;SDS011;21790;42.668;23.298;2023-12-28T19:05:09;93.18;;;37.28;;
35675;SDS011;21790;42.668;23.298;2023-12-28T19:07:36;78.90;;;36.28;;
35675;SDS011;21790;42.668;23.298;2023-12-28T19:10:01;84.40;;;36.38;;
35675;SDS011;21790;42.668;23.298;2023-12-28T19:12:27;80.18;;;35.67;;
35675;SDS011;21790;42.668;23.298;2023-12-28T19:14:53;69.88;;;34.65;;
35675;SDS011;21790;42.668;23.298;2023-12-28T19:17:20;87.75;;;35.95;;
35675;SDS011;21790;42.668;23.298;2023-12-28T19:19:46;82.72;;;36.10;;
35675;SDS011;21790;42.668;23.298;2023-12-28T20:25:20;87.40;;;39.15;;